createdAt,value
2017-10-21T00:00:26.255Z,282.4
2017-10-21T00:01:26.145Z,279.9
2017-10-21T00:02:26.146Z,271
2017-10-21T00:03:26.203Z,278.1
2017-10-21T00:04:26.152Z,327.6
2017-10-21T00:05:26.182Z,296.7
2017-10-21T00:06:26.134Z,300.6
2017-10-21T00:07:26.144Z,275.4
2017-10-21T00:08:26.144Z,243.8
2017-10-21T00:09:26.148Z,308.2
2017-10-21T00:10:26.261Z,292.9
2017-10-21T00:11:26.197Z,286.4
2017-10-21T00:12:26.160Z,225.5
2017-10-21T00:13:26.141Z,289.3
2017-10-21T00:14:26.137Z,230.3
2017-10-21T00:15:26.262Z,228.8
2017-10-21T00:16:26.123Z,202.6
2017-10-21T00:17:26.189Z,274.2
2017-10-21T00:18:26.150Z,230.7
2017-10-21T00:19:26.115Z,242.2
2017-10-21T00:20:26.207Z,292.4
2017-10-21T00:21:26.140Z,231.3
2017-10-21T00:22:26.165Z,288.3
2017-10-21T00:23:26.122Z,333.9
2017-10-21T00:24:26.125Z,351.3
2017-10-21T00:25:26.167Z,313.1
2017-10-21T00:26:26.169Z,294.5
2017-10-21T00:27:26.142Z,273.1
2017-10-21T00:28:26.125Z,286.1
2017-10-21T00:29:26.179Z,308.9
2017-10-21T00:30:26.128Z,329.6
2017-10-21T00:31:26.151Z,338
2017-10-21T00:32:26.162Z,324.5
2017-10-21T00:33:36.032Z,316.8
2017-10-21T00:34:26.148Z,291
2017-10-21T00:35:26.140Z,298.9
2017-10-21T00:36:26.155Z,311.3
2017-10-21T00:37:26.181Z,339
2017-10-21T00:38:26.177Z,323.9
2017-10-21T00:39:26.115Z,305.3
2017-10-21T00:40:26.126Z,321.7
2017-10-21T00:41:26.181Z,300.1
2017-10-21T00:42:26.146Z,298.7
2017-10-21T00:43:26.133Z,292
2017-10-21T00:44:26.109Z,271.3
2017-10-21T00:45:26.129Z,263.8
2017-10-21T00:46:26.211Z,303.5
2017-10-21T00:47:26.122Z,322.5
2017-10-21T00:48:26.141Z,320.9
2017-10-21T00:49:26.125Z,325.2
2017-10-21T00:50:26.141Z,334.3
2017-10-21T00:51:26.208Z,326.2
2017-10-21T00:52:26.146Z,327.4
2017-10-21T00:53:26.117Z,316
2017-10-21T00:54:26.158Z,316
2017-10-21T00:55:26.139Z,329.5
2017-10-21T00:56:26.168Z,326.1
2017-10-21T00:57:26.124Z,326.7
2017-10-21T00:58:26.131Z,316
2017-10-21T00:59:26.142Z,327.8
2017-10-21T01:00:26.105Z,341.8
2017-10-21T01:01:26.180Z,324.4
2017-10-21T01:02:26.149Z,330.4
2017-10-21T01:03:26.149Z,319
2017-10-21T01:04:26.127Z,352.4
2017-10-21T01:05:26.160Z,334.7
2017-10-21T01:06:26.214Z,334.1
2017-10-21T01:07:26.121Z,337.2
2017-10-21T01:08:26.118Z,321.4
2017-10-21T01:09:26.134Z,304.6
2017-10-21T01:10:26.120Z,317.6
2017-10-21T01:11:26.131Z,324.7
2017-10-21T01:12:26.147Z,319.1
2017-10-21T01:13:26.144Z,317.7
2017-10-21T01:14:26.146Z,318.1
2017-10-21T01:15:26.151Z,325.1
2017-10-21T01:16:26.189Z,312.6
2017-10-21T01:17:26.135Z,302.7
2017-10-21T01:18:26.145Z,308.1
2017-10-21T01:19:26.112Z,332.3
2017-10-21T01:20:26.163Z,330.3
2017-10-21T01:21:26.165Z,320.6
2017-10-21T01:22:26.135Z,325.7
2017-10-21T01:23:26.159Z,325.7
2017-10-21T01:24:26.123Z,316
2017-10-21T01:25:26.131Z,319.6
2017-10-21T01:26:26.204Z,319.9
2017-10-21T01:27:26.157Z,325
2017-10-21T01:28:26.103Z,315.7
2017-10-21T01:29:26.182Z,310.4
2017-10-21T01:30:26.129Z,316.8
2017-10-21T01:31:26.178Z,305.9
2017-10-21T01:32:26.100Z,322
2017-10-21T01:33:26.110Z,321.7
2017-10-21T01:34:26.132Z,319.3
2017-10-21T01:35:26.127Z,318
2017-10-21T01:36:26.211Z,306.4
2017-10-21T01:37:26.123Z,318.6
2017-10-21T01:38:26.163Z,310.2
2017-10-21T01:39:26.143Z,304.2
2017-10-21T01:40:26.103Z,297.8
2017-10-21T01:41:26.205Z,315.3
2017-10-21T01:42:26.128Z,314.8
2017-10-21T01:43:26.124Z,314.9
2017-10-21T01:44:26.135Z,320.3
2017-10-21T01:45:26.132Z,321.8
2017-10-21T01:46:26.159Z,318.2
2017-10-21T01:47:26.116Z,318.7
2017-10-21T01:48:26.129Z,319.9
2017-10-21T01:49:26.134Z,322.8
2017-10-21T01:50:26.126Z,326.6
2017-10-21T01:51:26.190Z,330.3
2017-10-21T01:52:26.085Z,319.5
2017-10-21T01:53:26.130Z,310.3
2017-10-21T01:54:26.165Z,318
2017-10-21T01:55:26.101Z,320.5
2017-10-21T01:56:26.227Z,320.3
2017-10-21T01:57:26.137Z,319.7
2017-10-21T01:58:26.129Z,322.2
2017-10-21T01:59:26.070Z,311.3
2017-10-21T02:00:26.127Z,318
2017-10-21T02:01:26.162Z,325.4
2017-10-21T02:02:26.116Z,323.7
2017-10-21T02:03:26.115Z,316.8
2017-10-21T02:04:26.134Z,318.9
2017-10-21T02:05:26.104Z,320.8
2017-10-21T02:06:26.182Z,328.6
2017-10-21T02:07:26.115Z,321.5
2017-10-21T02:08:26.107Z,323.2
2017-10-21T02:09:26.103Z,320.9
2017-10-21T02:10:26.105Z,326.4
2017-10-21T02:11:26.197Z,321.3
2017-10-21T02:12:26.093Z,326.7
2017-10-21T02:13:26.117Z,326.9
2017-10-21T02:14:26.138Z,325
2017-10-21T02:15:26.090Z,322.7
2017-10-21T02:16:26.152Z,325
2017-10-21T02:17:26.106Z,323.6
2017-10-21T02:18:26.099Z,315.4
2017-10-21T02:19:26.118Z,316.9
2017-10-21T02:20:26.113Z,318.6
2017-10-21T02:21:26.190Z,318.2
2017-10-21T02:22:26.118Z,319.1
2017-10-21T02:23:26.126Z,322.6
2017-10-21T02:24:26.119Z,305.4
2017-10-21T02:25:26.081Z,314.1
2017-10-21T02:26:26.150Z,328
2017-10-21T02:27:26.099Z,312.9
2017-10-21T02:28:26.094Z,305.2
2017-10-21T02:29:26.123Z,310.1
2017-10-21T02:30:26.071Z,310.4
2017-10-21T02:31:26.147Z,311.3
2017-10-21T02:32:26.115Z,321.9
2017-10-21T02:33:26.128Z,314.1
2017-10-21T02:34:26.078Z,317.8
2017-10-21T02:35:26.088Z,325.1
2017-10-21T02:36:26.168Z,321.5
2017-10-21T02:37:26.089Z,304.6
2017-10-21T02:38:26.091Z,300.7
2017-10-21T02:39:26.108Z,329.1
2017-10-21T02:40:26.080Z,323.9
2017-10-21T02:41:26.182Z,322.8
2017-10-21T02:42:26.069Z,327
2017-10-21T02:43:26.095Z,309.9
2017-10-21T02:44:26.088Z,332.1
2017-10-21T02:45:26.072Z,301.4
2017-10-21T02:46:26.200Z,310.1
2017-10-21T02:47:26.118Z,323.2
2017-10-21T02:48:26.125Z,312.1
2017-10-21T02:49:26.106Z,319.9
2017-10-21T02:50:26.091Z,335.5
2017-10-21T02:51:26.198Z,290.8
2017-10-21T02:52:26.105Z,312
2017-10-21T02:53:26.115Z,326.3
2017-10-21T02:54:26.125Z,305.7
2017-10-21T02:55:26.113Z,315.8
2017-10-21T02:56:26.190Z,315
2017-10-21T02:57:26.071Z,254.1
2017-10-21T02:58:26.057Z,290
2017-10-21T02:59:26.131Z,271.2
2017-10-21T03:00:26.082Z,326.6
2017-10-21T03:01:26.158Z,320.1
2017-10-21T03:02:26.072Z,342
2017-10-21T03:03:26.080Z,276
2017-10-21T03:04:26.085Z,285.1
2017-10-21T03:05:26.087Z,257
2017-10-21T03:06:26.132Z,255.9
2017-10-21T03:07:26.121Z,278.4
2017-10-21T03:08:26.097Z,317.8
2017-10-21T03:13:46.563Z,283.9
2017-10-21T03:14:26.084Z,231.9
2017-10-21T03:15:26.115Z,244.8
2017-10-21T03:16:26.045Z,278.5
2017-10-21T03:17:26.126Z,280.9
2017-10-21T03:18:26.126Z,290.9
2017-10-21T03:19:35.204Z,264
2017-10-21T03:20:32.962Z,283.1
2017-10-21T03:21:26.083Z,256.4
2017-10-21T03:22:26.140Z,280.6
2017-10-21T03:23:26.072Z,273.5
2017-10-21T03:24:26.090Z,269.4
2017-10-21T03:25:26.067Z,264.1
2017-10-21T03:26:26.062Z,237.8
2017-10-21T03:27:26.131Z,243.7
2017-10-21T03:28:26.114Z,234.8
2017-10-21T03:29:26.064Z,272.8
2017-10-21T03:30:26.108Z,254.9
2017-10-21T03:31:26.077Z,240.8
2017-10-21T03:32:26.184Z,240.6
2017-10-21T03:34:35.638Z,169.2
2017-10-21T03:35:35.651Z,230.4
2017-10-21T03:36:35.617Z,226.1
2017-10-21T03:37:35.668Z,240.2
2017-10-21T03:38:55.408Z,232.2
2017-10-21T03:39:35.633Z,235.7
2017-10-21T03:40:35.658Z,250.6
2017-10-21T03:41:35.632Z,242.1
2017-10-21T03:42:35.704Z,252.3
2017-10-21T03:43:35.637Z,276.8
2017-10-21T03:44:35.664Z,283.2
2017-10-21T03:45:35.643Z,245.9
2017-10-21T03:46:35.640Z,276.2
2017-10-21T03:47:35.693Z,270.4
2017-10-21T03:48:35.621Z,244.7
2017-10-21T03:49:35.637Z,211.8
2017-10-21T03:50:35.650Z,225.1
2017-10-21T03:51:35.638Z,241.4
2017-10-21T03:52:35.733Z,260.5
2017-10-21T03:53:35.600Z,255.4
2017-10-21T03:54:35.639Z,245.4
2017-10-21T03:55:35.623Z,262.2
2017-10-21T03:56:35.656Z,296.3
2017-10-21T03:57:35.714Z,274.8
2017-10-21T03:58:35.621Z,298
2017-10-21T03:59:35.617Z,296.8
2017-10-21T04:00:35.660Z,274.4
2017-10-21T04:01:35.632Z,323.8
2017-10-21T04:03:10.284Z,349.7
2017-10-21T04:03:35.589Z,314.4
2017-10-21T04:04:35.629Z,328.4
2017-10-21T04:05:35.639Z,313.9
2017-10-21T04:06:35.609Z,287.8
2017-10-21T04:07:35.723Z,284.7
2017-10-21T04:08:35.628Z,270.2
2017-10-21T04:09:35.654Z,251.9
2017-10-21T04:10:35.609Z,234.6
2017-10-21T04:11:35.607Z,229
2017-10-21T04:12:35.735Z,272.4
2017-10-21T04:13:35.630Z,313.4
2017-10-21T04:14:35.615Z,249.4
2017-10-21T04:15:35.658Z,201.1
2017-10-21T04:16:35.612Z,184.8
2017-10-21T04:17:35.688Z,202.9
2017-10-21T04:18:38.703Z,196.6
2017-10-21T04:19:35.619Z,215
2017-10-21T04:20:35.616Z,224.6
2017-10-21T04:21:35.608Z,237.7
2017-10-21T04:22:35.710Z,232.9
2017-10-21T04:23:35.630Z,219.9
2017-10-21T04:24:35.631Z,225.7
2017-10-21T04:25:35.669Z,232.1
2017-10-21T04:26:35.602Z,228.5
2017-10-21T04:27:35.678Z,227.5
2017-10-21T04:28:35.645Z,222.1
2017-10-21T04:29:35.636Z,240.5
2017-10-21T04:30:35.604Z,225.8
2017-10-21T04:31:35.594Z,224.7
2017-10-21T04:32:35.696Z,248
2017-10-21T04:33:35.602Z,248.6
2017-10-21T04:34:35.612Z,248.5
2017-10-21T04:35:35.624Z,251.3
2017-10-21T04:36:36.622Z,215.8
2017-10-21T04:37:35.670Z,208
2017-10-21T04:38:35.607Z,202.2
2017-10-21T04:39:35.634Z,233.9
2017-10-21T04:40:35.627Z,226.1
2017-10-21T04:41:35.620Z,227.8
2017-10-21T04:42:35.735Z,227.9
2017-10-21T04:43:35.628Z,240.5
2017-10-21T04:44:35.617Z,242.3
2017-10-21T04:45:35.594Z,227.3
2017-10-21T04:46:35.615Z,220.6
2017-10-21T04:47:35.667Z,225.5
2017-10-21T04:48:35.600Z,230.9
2017-10-21T04:49:35.616Z,236.2
2017-10-21T04:50:35.639Z,230.9
2017-10-21T04:51:35.618Z,211.8
2017-10-21T04:52:35.709Z,220.6
2017-10-21T04:53:35.601Z,223.1
2017-10-21T04:54:35.643Z,199.3
2017-10-21T04:55:35.615Z,221.9
2017-10-21T04:56:35.578Z,208.8
2017-10-21T04:57:35.687Z,212.6
2017-10-21T04:58:35.597Z,225
2017-10-21T04:59:35.587Z,246.3
2017-10-21T05:00:35.670Z,227
2017-10-21T05:01:35.609Z,212.4
2017-10-21T05:02:35.725Z,211.8
2017-10-21T05:03:35.633Z,217.9
2017-10-21T05:04:35.568Z,175.3
2017-10-21T05:05:35.613Z,218.7
2017-10-21T05:06:35.585Z,219.1
2017-10-21T05:07:35.620Z,228.5
2017-10-21T05:08:35.645Z,229.8
2017-10-21T05:09:35.597Z,225.5
2017-10-21T05:10:35.624Z,213
2017-10-21T05:11:35.579Z,216.3
2017-10-21T05:12:35.644Z,242.8
2017-10-21T05:13:35.755Z,236.9
2017-10-21T05:14:35.613Z,221.6
2017-10-21T05:15:35.612Z,223.8
2017-10-21T05:16:35.607Z,212.8
2017-10-21T05:17:35.618Z,214.1
2017-10-21T05:18:35.682Z,240.6
2017-10-21T05:19:35.548Z,239.1
2017-10-21T05:20:35.612Z,239.8
2017-10-21T05:21:35.592Z,234
2017-10-21T05:22:35.602Z,246.9
2017-10-21T05:23:35.652Z,245.2
2017-10-21T05:24:35.577Z,248.9
2017-10-21T05:25:35.598Z,255.6
2017-10-21T05:26:35.608Z,252.2
2017-10-21T05:27:35.603Z,263.1
2017-10-21T05:28:35.692Z,246
2017-10-21T05:29:35.582Z,230.8
2017-10-21T05:31:10.224Z,236
2017-10-21T05:31:35.641Z,236.8
2017-10-21T05:32:35.626Z,236.6
2017-10-21T05:33:35.658Z,226
2017-10-21T05:34:35.517Z,237.9
2017-10-21T05:35:35.620Z,232.9
2017-10-21T05:36:35.594Z,214.4
2017-10-21T05:37:35.639Z,200.7
2017-10-21T05:38:35.669Z,238.6
2017-10-21T05:39:35.564Z,253.6
2017-10-21T05:40:35.547Z,237.4
2017-10-21T05:41:35.596Z,230.5
2017-10-21T05:42:35.593Z,246.1
2017-10-21T05:43:35.687Z,217.4
2017-10-21T05:44:35.572Z,184.2
2017-10-21T05:45:35.589Z,197
2017-10-21T05:46:35.585Z,164
2017-10-21T05:47:38.414Z,126
2017-10-21T05:48:35.645Z,103.7
2017-10-21T05:49:36.747Z,124.2
2017-10-21T05:50:35.533Z,185.3
2017-10-21T05:51:35.608Z,147.9
2017-10-21T05:52:35.631Z,234
2017-10-21T05:53:41.407Z,259.9
2017-10-21T05:54:36.706Z,258.6
2017-10-21T05:55:35.959Z,231.3
2017-10-21T05:56:38.055Z,216.6
2017-10-21T05:57:35.854Z,185.8
2017-10-21T05:58:36.067Z,216.9
2017-10-21T05:59:35.971Z,221.8
2017-10-21T06:00:38.782Z,227.9
2017-10-21T06:01:35.896Z,233.9
2017-10-21T06:02:35.947Z,224.6
2017-10-21T06:03:38.175Z,241.6
2017-10-21T06:04:36.179Z,244.5
2017-10-21T06:05:38.260Z,252.7
2017-10-21T06:06:40.797Z,251.1
2017-10-21T06:07:40.052Z,238.7
2017-10-21T06:08:35.752Z,247.6
2017-10-21T06:09:36.012Z,260
2017-10-21T06:10:35.818Z,196.8
2017-10-21T06:11:38.761Z,213
2017-10-21T06:12:36.050Z,246.6
2017-10-21T06:13:35.736Z,260.9
2017-10-21T06:14:36.034Z,266.1
2017-10-21T06:15:35.966Z,259.7
2017-10-21T06:16:35.956Z,257.6
2017-10-21T06:17:35.596Z,263.1
2017-10-21T06:18:35.571Z,243.1
2017-10-21T06:19:35.665Z,201.2
2017-10-21T06:20:35.504Z,227.2
2017-10-21T06:21:38.061Z,246.9
2017-10-21T06:22:35.572Z,238.6
2017-10-21T06:23:35.589Z,254.2
2017-10-21T06:24:35.685Z,231.5
2017-10-21T06:25:35.611Z,245.3
2017-10-21T06:26:35.583Z,257
2017-10-21T06:27:35.579Z,254.3
2017-10-21T06:28:35.569Z,245.4
2017-10-21T06:29:35.633Z,234
2017-10-21T06:30:35.591Z,239.5
2017-10-21T06:31:35.563Z,239.8
2017-10-21T06:32:35.580Z,247.3
2017-10-21T06:33:35.555Z,250.4
2017-10-21T06:34:35.659Z,223.7
2017-10-21T06:35:35.505Z,199.6
2017-10-21T06:36:37.154Z,221
2017-10-21T06:37:35.908Z,234.1
2017-10-21T06:38:38.259Z,227.9
2017-10-21T06:39:36.023Z,248.5
2017-10-21T06:40:37.929Z,258.9
2017-10-21T06:41:35.734Z,243.2
2017-10-21T06:42:35.867Z,252.5
2017-10-21T06:43:37.961Z,253.1
2017-10-21T06:44:35.857Z,237.4
2017-10-21T06:45:36.074Z,229.4
2017-10-21T06:46:36.587Z,219.8
2017-10-21T06:47:35.700Z,221.8
2017-10-21T06:48:35.768Z,237.6
2017-10-21T06:49:35.795Z,238.6
2017-10-21T06:50:35.831Z,245.2
2017-10-21T06:51:35.951Z,230.9
2017-10-21T06:52:35.834Z,230.1
2017-10-21T06:53:36.912Z,231.9
2017-10-21T06:54:35.805Z,216.5
2017-10-21T06:55:38.053Z,203.9
2017-10-21T06:56:35.993Z,229.4
2017-10-21T06:57:35.961Z,252.4
2017-10-21T06:58:35.603Z,245.5
2017-10-21T06:59:35.626Z,255.1
2017-10-21T07:00:35.571Z,247.8
2017-10-21T07:01:37.224Z,242.6
2017-10-21T07:02:35.655Z,248.6
2017-10-21T07:03:35.863Z,246.5
2017-10-21T07:04:35.989Z,234.2
2017-10-21T07:05:35.886Z,247.3
2017-10-21T07:06:35.916Z,251.3
2017-10-21T07:07:36.578Z,246.4
2017-10-21T07:08:35.654Z,246.3
2017-10-21T07:09:35.950Z,259.4
2017-10-21T07:10:36.042Z,266
2017-10-21T07:11:36.115Z,262.4
2017-10-21T07:12:37.881Z,248.4
2017-10-21T07:13:35.963Z,263.2
2017-10-21T07:14:35.994Z,252.2
2017-10-21T07:15:35.998Z,254.9
2017-10-21T07:16:35.961Z,261.3
2017-10-21T07:17:35.990Z,264.5
2017-10-21T07:18:35.917Z,267.5
2017-10-21T07:19:40.173Z,258.6
2017-10-21T07:20:35.919Z,193.6
2017-10-21T07:21:37.971Z,157.9
2017-10-21T07:22:35.692Z,187.8
2017-10-21T07:23:35.542Z,201.1
2017-10-21T07:24:35.614Z,217.4
2017-10-21T07:25:35.620Z,172
2017-10-21T07:26:35.536Z,206.8
2017-10-21T07:27:35.569Z,222.5
2017-10-21T07:28:35.576Z,285.3
2017-10-21T07:29:35.585Z,247.2
2017-10-21T07:31:10.130Z,233.4
2017-10-21T07:31:35.568Z,223.3
2017-10-21T07:32:35.572Z,207.1
2017-10-21T07:33:35.538Z,199.5
2017-10-21T07:34:35.616Z,201.7
2017-10-21T07:35:35.542Z,206.3
2017-10-21T07:36:35.622Z,208.4
2017-10-21T07:37:35.569Z,218.1
2017-10-21T07:38:35.570Z,221.9
2017-10-21T07:39:35.617Z,233.8
2017-10-21T07:40:35.547Z,253.9
2017-10-21T07:41:35.668Z,227
2017-10-21T07:42:35.636Z,248.7
2017-10-21T07:43:35.559Z,260.6
2017-10-21T07:44:35.626Z,234
2017-10-21T07:45:35.563Z,221.2
2017-10-21T07:46:35.542Z,229.4
2017-10-21T07:47:35.605Z,252.9
2017-10-21T07:48:35.535Z,265.5
2017-10-21T07:49:35.611Z,264.7
2017-10-21T07:50:35.549Z,219.4
2017-10-21T07:51:35.523Z,201.7
2017-10-21T07:52:35.573Z,172.8
2017-10-21T07:53:35.531Z,206.5
2017-10-21T07:54:35.574Z,163
2017-10-21T07:55:35.588Z,187.8
2017-10-21T07:56:35.618Z,284.5
2017-10-21T07:57:35.541Z,269.4
2017-10-21T07:58:35.559Z,230.5
2017-10-21T07:59:35.582Z,192.5
2017-10-21T08:00:35.598Z,188
2017-10-21T08:01:35.550Z,191
2017-10-21T08:02:35.521Z,196.7
2017-10-21T08:03:35.558Z,161
2017-10-21T08:04:35.537Z,170.8
2017-10-21T08:05:35.586Z,183
2017-10-21T08:06:35.569Z,174.2
2017-10-21T08:07:35.554Z,228
2017-10-21T08:08:35.557Z,244
2017-10-21T08:09:35.529Z,241.6
2017-10-21T08:10:35.602Z,232
2017-10-21T08:11:35.555Z,252.6
2017-10-21T08:12:35.569Z,238.6
2017-10-21T08:13:35.523Z,244
2017-10-21T08:14:35.620Z,248.6
2017-10-21T08:15:35.525Z,260.9
2017-10-21T08:16:35.601Z,245.8
2017-10-21T08:17:35.565Z,264.3
2017-10-21T08:18:35.534Z,299.6
2017-10-21T08:19:35.541Z,271.2
2017-10-21T08:20:35.572Z,291.6
2017-10-21T08:21:35.643Z,310.8
2017-10-21T08:22:35.504Z,308.2
2017-10-21T08:23:35.559Z,318.9
2017-10-21T08:24:35.544Z,277
2017-10-21T08:25:35.604Z,305.1
2017-10-21T08:26:35.617Z,303
2017-10-21T08:28:02.989Z,261.8
2017-10-21T08:28:50.947Z,254.6
2017-10-21T08:29:42.066Z,214.5
2017-10-21T08:30:35.537Z,184.9
2017-10-21T08:31:35.640Z,225.1
2017-10-21T08:32:35.566Z,234.9
2017-10-21T08:33:35.546Z,267.2
2017-10-21T08:34:35.540Z,296.6
2017-10-21T08:35:35.519Z,314.7
2017-10-21T08:36:35.605Z,318
2017-10-21T08:37:35.555Z,298.8
2017-10-21T08:38:35.563Z,314.4
2017-10-21T08:39:35.563Z,287.6
2017-10-21T08:40:35.513Z,258.5
2017-10-21T08:41:35.620Z,212
2017-10-21T08:42:35.551Z,163.3
2017-10-21T08:43:35.535Z,192.5
2017-10-21T08:44:35.559Z,242.8
2017-10-21T08:45:35.540Z,289.4
2017-10-21T08:46:35.634Z,261.4
2017-10-21T08:47:35.540Z,269
2017-10-21T08:48:35.568Z,198.2
2017-10-21T08:49:35.552Z,256.6
2017-10-21T08:50:35.588Z,209.3
2017-10-21T08:51:35.651Z,203.9
2017-10-21T08:52:35.561Z,263.6
2017-10-21T08:53:35.526Z,332.9
2017-10-21T08:54:35.522Z,333
2017-10-21T08:55:35.561Z,266.2
2017-10-21T08:56:35.606Z,203.8
2017-10-21T08:57:35.529Z,333.4
2017-10-21T08:58:35.548Z,315.2
2017-10-21T08:59:35.532Z,242.1
2017-10-21T09:00:35.482Z,245.5
2017-10-21T09:01:35.593Z,257.8
2017-10-21T09:02:35.510Z,219.9
2017-10-21T09:03:35.541Z,249
2017-10-21T09:04:35.566Z,212.3
2017-10-21T09:05:35.551Z,193
2017-10-21T09:06:35.626Z,174
2017-10-21T09:07:35.551Z,356.5
2017-10-21T09:08:35.500Z,323.3
2017-10-21T09:09:35.523Z,319.7
2017-10-21T09:10:35.541Z,323
2017-10-21T09:11:35.595Z,298.9
2017-10-21T09:12:35.538Z,234.3
2017-10-21T09:13:35.522Z,255.1
2017-10-21T09:14:35.553Z,221.3
2017-10-21T09:15:35.526Z,259.5
2017-10-21T09:16:35.623Z,209.5
2017-10-21T09:17:35.540Z,180.3
2017-10-21T09:18:35.556Z,210.5
2017-10-21T09:19:35.515Z,218.8
2017-10-21T09:20:35.497Z,165.8
2017-10-21T09:21:35.598Z,190.8
2017-10-21T09:22:35.541Z,185
2017-10-21T09:23:35.539Z,197.5
2017-10-21T09:24:35.492Z,287.5
2017-10-21T09:25:35.490Z,253.8
2017-10-21T09:26:35.636Z,293.4
2017-10-21T09:27:35.544Z,303.9
2017-10-21T09:28:35.562Z,316
2017-10-21T09:29:35.561Z,324.4
2017-10-21T09:30:35.539Z,325.3
2017-10-21T09:31:35.546Z,318.5
2017-10-21T09:32:35.532Z,268.1
2017-10-21T09:33:35.533Z,208
2017-10-21T09:34:35.509Z,289.4
2017-10-21T09:35:35.563Z,344
2017-10-21T09:36:35.627Z,14.9
2017-10-21T09:37:35.529Z,340.8
2017-10-21T09:38:35.459Z,253.8
2017-10-21T09:39:35.517Z,257
2017-10-21T09:40:35.560Z,310.8
2017-10-21T09:41:35.587Z,300.9
2017-10-21T09:42:35.541Z,309.4
2017-10-21T09:43:35.568Z,317.1
2017-10-21T09:44:38.101Z,316.4
2017-10-21T09:45:35.557Z,320.7
2017-10-21T09:46:35.608Z,323.2
2017-10-21T09:47:35.477Z,321.5
2017-10-21T09:48:35.526Z,320
2017-10-21T09:49:35.533Z,303.1
2017-10-21T09:50:36.025Z,322.3
2017-10-21T09:51:35.647Z,316.5
2017-10-21T09:52:35.523Z,309.4
2017-10-21T09:53:35.528Z,307.7
2017-10-21T09:54:35.530Z,305.6
2017-10-21T09:55:35.517Z,306.3
2017-10-21T09:56:35.642Z,225.8
2017-10-21T09:57:35.525Z,225.7
2017-10-21T09:58:35.456Z,212.6
2017-10-21T09:59:35.508Z,292.2
2017-10-21T10:00:35.535Z,319
2017-10-21T10:01:35.566Z,317.2
2017-10-21T10:02:35.493Z,320
2017-10-21T10:03:35.517Z,323.7
2017-10-21T10:04:35.515Z,335
2017-10-21T10:05:35.548Z,320.6
2017-10-21T10:06:35.603Z,292.3
2017-10-21T10:07:35.557Z,282.1
2017-10-21T10:08:35.539Z,266.8
2017-10-21T10:09:35.552Z,281
2017-10-21T10:10:35.523Z,300.2
2017-10-21T10:11:35.587Z,318.7
2017-10-21T10:12:35.648Z,321.3
2017-10-21T10:13:35.530Z,318.2
2017-10-21T10:14:35.536Z,289.1
2017-10-21T10:15:35.526Z,231.5
2017-10-21T10:16:35.546Z,308.7
2017-10-21T10:17:35.579Z,319.2
2017-10-21T10:18:35.540Z,321.5
2017-10-21T10:19:35.522Z,320.4
2017-10-21T10:20:35.548Z,322.7
2017-10-21T10:21:35.529Z,329.3
2017-10-21T10:22:35.694Z,324
2017-10-21T10:23:35.537Z,322.7
2017-10-21T10:24:35.545Z,316.4
2017-10-21T10:25:35.548Z,326.8
2017-10-21T10:26:35.586Z,328
2017-10-21T10:27:35.627Z,309.2
2017-10-21T10:28:35.476Z,302.9
2017-10-21T10:29:35.520Z,305.3
2017-10-21T10:30:35.521Z,321.7
2017-10-21T10:31:35.535Z,302.3
2017-10-21T10:32:35.608Z,280.1
2017-10-21T10:33:37.690Z,295.6
2017-10-21T10:34:36.048Z,323.2
2017-10-21T10:35:35.909Z,327.4
2017-10-21T10:36:35.988Z,331.9
2017-10-21T10:37:36.057Z,321.7
2017-10-21T10:38:36.074Z,321.2
2017-10-21T10:39:42.565Z,317.8
2017-10-21T10:40:35.904Z,316.7
2017-10-21T10:41:36.150Z,300.2
2017-10-21T10:42:35.628Z,310.4
2017-10-21T10:43:35.534Z,315.7
2017-10-21T10:44:35.531Z,280.9
2017-10-21T10:45:35.549Z,311.3
2017-10-21T10:46:35.510Z,306.4
2017-10-21T10:47:35.690Z,319.8
2017-10-21T10:48:35.501Z,296.7
2017-10-21T10:49:35.502Z,297.8
2017-10-21T10:50:35.503Z,324.9
2017-10-21T10:51:35.495Z,320.8
2017-10-21T10:52:35.597Z,327.8
2017-10-21T10:53:35.515Z,304.7
2017-10-21T10:54:35.473Z,313
2017-10-21T10:55:35.549Z,274.2
2017-10-21T10:56:35.481Z,289.8
2017-10-21T10:57:35.585Z,314.6
2017-10-21T10:58:35.507Z,303.5
2017-10-21T10:59:35.513Z,297.6
2017-10-21T11:00:35.531Z,315.5
2017-10-21T11:01:35.491Z,309.2
2017-10-21T11:02:35.614Z,322.8
2017-10-21T11:03:35.556Z,320.3
2017-10-21T11:04:35.536Z,326.2
2017-10-21T11:05:35.542Z,318.6
2017-10-21T11:06:35.553Z,338.4
2017-10-21T11:07:35.670Z,337.3
2017-10-21T11:08:35.517Z,338.5
2017-10-21T11:09:35.522Z,336.1
2017-10-21T11:10:35.516Z,333.8
2017-10-21T11:11:35.545Z,310.5
2017-10-21T11:12:35.558Z,300
2017-10-21T11:13:35.549Z,311
2017-10-21T11:14:35.515Z,323.9
2017-10-21T11:15:35.536Z,325.6
2017-10-21T11:16:35.522Z,312.2
2017-10-21T11:17:35.533Z,331.9
2017-10-21T11:18:35.579Z,327.6
2017-10-21T11:19:35.512Z,295.4
2017-10-21T11:20:35.542Z,277.8
2017-10-21T11:21:35.492Z,293.8
2017-10-21T11:22:35.519Z,301.4
2017-10-21T11:23:35.588Z,313.6
2017-10-21T11:24:35.501Z,316.1
2017-10-21T11:25:35.506Z,316.9
2017-10-21T11:26:35.548Z,325.1
2017-10-21T11:27:35.497Z,310.9
2017-10-21T11:28:35.619Z,326.4
2017-10-21T11:29:35.543Z,334.1
2017-10-21T11:30:35.492Z,343.1
2017-10-21T11:31:35.502Z,339.6
2017-10-21T11:32:35.641Z,339.9
2017-10-21T11:33:35.561Z,327.2
2017-10-21T11:34:35.450Z,328.9
2017-10-21T11:35:35.525Z,311.5
2017-10-21T11:36:35.514Z,322.3
2017-10-21T11:38:10.122Z,320.2
2017-10-21T11:39:10.228Z,323.4
2017-10-21T11:39:35.506Z,320
2017-10-21T11:44:58.833Z,319.5
2017-10-21T11:45:35.557Z,317.4
2017-10-21T11:46:35.535Z,330.3
2017-10-21T11:47:35.512Z,307
2017-10-21T11:48:35.561Z,322.3
2017-10-21T11:49:35.547Z,318.6
2017-10-21T11:50:35.511Z,324.4
2017-10-21T11:51:35.514Z,318.5
2017-10-21T11:52:38.504Z,314.4
2017-10-21T11:53:35.520Z,319.3
2017-10-21T11:54:35.622Z,307.8
2017-10-21T11:55:35.505Z,266.1
2017-10-21T11:56:35.522Z,286.8
2017-10-21T11:57:35.517Z,325.9
2017-10-21T11:58:35.526Z,335.4
2017-10-21T11:59:35.604Z,327.6
2017-10-21T12:00:35.535Z,325.9
2017-10-21T12:01:35.501Z,306.8
2017-10-21T12:02:35.521Z,315.6
2017-10-21T12:03:35.498Z,306.3
2017-10-21T12:04:35.582Z,276.2
2017-10-21T12:05:35.527Z,330.5
2017-10-21T12:06:35.697Z,274.5
2017-10-21T12:07:35.505Z,248
2017-10-21T12:08:35.533Z,227.1
2017-10-21T12:09:35.567Z,221.6
2017-10-21T12:10:35.538Z,198.8
2017-10-21T12:11:35.496Z,216.8
2017-10-21T12:12:35.517Z,299
2017-10-21T12:13:35.531Z,298.2
2017-10-21T12:14:35.618Z,307.2
2017-10-21T12:15:35.486Z,329.5
2017-10-21T12:16:35.530Z,322.4
2017-10-21T12:17:35.510Z,323.7
2017-10-21T12:18:35.528Z,305.9
2017-10-21T12:19:35.659Z,305.7
2017-10-21T12:20:35.545Z,298.1
2017-10-21T12:21:35.573Z,306.9
2017-10-21T12:22:35.540Z,307
2017-10-21T12:23:35.481Z,303.4
2017-10-21T12:24:35.609Z,287.2
2017-10-21T12:25:35.496Z,318.6
2017-10-21T12:26:35.500Z,318.3
2017-10-21T12:27:35.510Z,315.6
2017-10-21T12:28:35.512Z,309.5
2017-10-21T12:29:35.568Z,327.4
2017-10-21T12:30:35.482Z,324.5
2017-10-21T12:31:35.487Z,310.8
2017-10-21T12:32:35.502Z,319.5
2017-10-21T12:33:35.516Z,312.8
2017-10-21T12:34:35.574Z,302.4
2017-10-21T12:35:35.504Z,302.5
2017-10-21T12:36:35.518Z,282.4
2017-10-21T12:37:35.524Z,282.9
2017-10-21T12:38:35.517Z,307
2017-10-21T12:39:35.564Z,312.2
2017-10-21T12:40:35.497Z,319.8
2017-10-21T12:41:35.454Z,328.1
2017-10-21T12:42:35.486Z,323.5
2017-10-21T12:43:35.502Z,332.9
2017-10-21T12:44:35.602Z,321.3
2017-10-21T12:45:35.529Z,313.1
2017-10-21T12:46:35.501Z,282.4
2017-10-21T12:47:35.507Z,294.4
2017-10-21T12:48:35.516Z,318.8
2017-10-21T12:49:35.636Z,318.6
2017-10-21T12:50:35.500Z,319.4
2017-10-21T12:51:35.513Z,324.9
2017-10-21T12:52:35.515Z,282.5
2017-10-21T12:53:35.487Z,276.3
2017-10-21T12:54:35.550Z,305.7
2017-10-21T12:55:35.519Z,299.1
2017-10-21T12:56:35.524Z,334.2
2017-10-21T12:57:35.498Z,324.9
2017-10-21T12:58:35.509Z,335.4
2017-10-21T12:59:35.571Z,337.7
2017-10-21T13:00:35.482Z,312.7
2017-10-21T13:01:35.555Z,333.5
2017-10-21T13:02:35.498Z,15.4
2017-10-21T13:03:35.489Z,312.2
2017-10-21T13:04:35.618Z,329
2017-10-21T13:05:35.519Z,349.7
2017-10-21T13:06:35.522Z,0.3
2017-10-21T13:07:35.500Z,346.3